Slavutich-16 — ENYT — position and weather

sailwx.info

Track history (hours):
 
Tides and Currents Weather Stations Pressure Air Temp Water Temp Dewpoint Dewpoint Depression Visibility Wind Speed Wind Dir Waves Ship Positions

Slavutich-16

Last reported at 2014-Oct-15 15:17 UTC. Time now 2014-Oct-25 07:48 UTC.
Position N 44°36' E 035°08'.
Warning: this ship's position is 9 days out of date.

Length 108 m; draft 2.6 m.

Type: Cargo ship. MMSI: 272046000.

Date/timePositionNaut miles runAvg speedWind from/ knotsBaromVisibWave heightAir tempDewpointWater temp
2014-Oct-15 15:17N 44°36' E 035°08'6 6.8
2014-Oct-15 14:28N 44°34' E 035°01'6 6.6
2014-Oct-15 13:33N 44°32' E 034°53'7 6.6
2014-Oct-15 12:33N 44°30' E 034°44'7 6.8
2014-Oct-15 11:33N 44°28' E 034°35'7 7.1
2014-Oct-15 10:33N 44°25' E 034°26'7 6.9
2014-Oct-15 09:33N 44°23' E 034°17'8 7.3
2014-Oct-15 08:31N 44°21' E 034°07'57 5.7
2014-Oct-14 22:29N 44°44' E 032°54'9 6.8
2014-Oct-14 21:08N 44°51' E 032°45'11 7.1
2014-Oct-14 19:32N 44°59' E 032°34'7 7.5
2014-Oct-14 18:33N 45°05' E 032°27'8 7.3
2014-Oct-14 17:27N 45°11' E 032°19'7 7.4
2014-Oct-14 16:33N 45°16' E 032°13'6 5.7
2014-Oct-14 15:34N 45°20' E 032°18'6 5.7
2014-Oct-14 14:33N 45°26' E 032°17'7 7.4
2014-Oct-14 13:33N 45°32' E 032°10'7 7.3
2014-Oct-14 12:33N 45°38' E 032°04'11 7.3
2014-Oct-14 11:04N 45°47' E 031°55'6 7.3
2014-Oct-14 10:16N 45°52' E 031°51'5 7.3
2014-Oct-14 09:33N 45°56' E 031°47'7 7.3
2014-Oct-14 08:33N 46°02' E 031°41'15 7.3
2014-Oct-14 06:33N 46°14' E 031°29'8 7.5
2014-Oct-14 05:30N 46°22' E 031°29'7 7.4
2014-Oct-14 04:32N 46°29' E 031°29'6 5.6
2014-Oct-14 03:30N 46°35' E 031°31'8 7.4
2014-Oct-14 02:23N 46°36' E 031°43'7 7.6
2014-Oct-14 01:28N 46°37' E 031°52'6 6.9
2014-Oct-14 00:33N 46°43' E 031°56'6 6.3
2014-Oct-13 23:33N 46°49' E 031°54'7 7.0
2014-Oct-13 22:32N 46°55' E 032°01'2 2.1
2014-Oct-13 21:31N 46°57' E 031°60'0 0.0
2014-Oct-13 20:31N 46°57' E 031°60'0 0.0
2014-Oct-13 19:31N 46°57' E 031°60'0 0.0
2014-Oct-13 18:31N 46°57' E 031°60'0 0.0
2014-Oct-13 17:31N 46°57' E 031°60'0 0.0
2014-Oct-13 16:31N 46°57' E 031°60'0 0.0
2014-Oct-13 15:31N 46°57' E 031°60'1 0.4
2014-Oct-13 13:28N 46°57' E 032°01'0 0.0
2014-Oct-13 12:22N 46°57' E 032°01'0 0.0
2014-Oct-13 11:31N 46°57' E 032°01'0 0.0
2014-Oct-13 10:31N 46°57' E 032°01'0 0.0
2014-Oct-13 09:31N 46°57' E 032°01'0 0.0
2014-Oct-13 08:31N 46°57' E 032°01'0 0.0
2014-Oct-13 07:31N 46°57' E 032°01'0 0.0
2014-Oct-13 06:28N 46°57' E 032°01'0 0.0
2014-Oct-13 05:31N 46°57' E 032°01'0 0.0
2014-Oct-13 04:31N 46°57' E 032°01'0 0.0
2014-Oct-13 03:31N 46°57' E 032°01'0 0.0
2014-Oct-13 02:31N 46°57' E 032°01'0 0.0
2014-Oct-13 01:31N 46°57' E 032°01'0 0.0
2014-Oct-13 00:31N 46°57' E 032°01'0 0.0
2014-Oct-12 23:31N 46°57' E 032°01'0 0.0
2014-Oct-12 22:31N 46°57' E 032°01'0 0.3
2014-Oct-12 21:33N 46°56' E 032°01'1 0.6
2014-Oct-12 20:31N 46°57' E 031°60'0 0.0
2014-Oct-12 19:31N 46°57' E 031°60'0 0.0
2014-Oct-12 18:31N 46°57' E 031°60'0 0.0
2014-Oct-12 17:31N 46°57' E 031°60'0 0.0
2014-Oct-12 16:31N 46°57' E 031°60'0 0.0
2014-Oct-12 15:31N 46°57' E 031°60'0 0.1
2014-Oct-12 14:31N 46°56' E 031°60'0 0.0
2014-Oct-12 13:31N 46°56' E 031°60'0 0.1
2014-Oct-12 12:31N 46°56' E 031°60'0 0.1
2014-Oct-12 11:31N 46°56' E 031°60'0 0.0
2014-Oct-12 10:31N 46°57' E 031°60'0 0.0
2014-Oct-12 09:31N 46°56' E 031°60'0 0.0
2014-Oct-12 08:31N 46°56' E 031°60'0 0.0
2014-Oct-12 07:31N 46°57' E 031°60'4 3.9
2014-Oct-12 06:33N 46°53' E 031°59'7 6.7
2014-Oct-12 05:33N 46°48' E 031°53'1 1.2
2014-Oct-12 04:31N 46°46' E 031°53'0 0.0
2014-Oct-12 03:31N 46°46' E 031°53'0 0.0
2014-Oct-12 02:31N 46°46' E 031°53'0 0.0
2014-Oct-12 01:31N 46°46' E 031°53'0 0.0
2014-Oct-12 00:28N 46°46' E 031°53'0 0.0
2014-Oct-11 23:31N 46°46' E 031°53'0 0.0
2014-Oct-11 22:31N 46°46' E 031°53'0 0.0
2014-Oct-11 21:31N 46°46' E 031°53'0 0.0
2014-Oct-11 20:31N 46°46' E 031°53'0 0.0
2014-Oct-11 19:31N 46°46' E 031°53'0 0.0
2014-Oct-11 18:31N 46°46' E 031°53'0 0.0
2014-Oct-11 17:31N 46°46' E 031°53'0 0.0
2014-Oct-11 16:31N 46°46' E 031°53'0 0.0
2014-Oct-11 15:31N 46°46' E 031°53'0 0.0
2014-Oct-11 14:31N 46°46' E 031°53'5 5.3
2014-Oct-11 13:34N 46°42' E 031°56'8 6.7
2014-Oct-11 12:18N 46°36' E 031°47'38 6.6
2014-Oct-11 06:30N 46°31' E 030°52'4 3.7
2014-Oct-11 05:33N 46°31' E 030°47'0 0.0
2014-Oct-11 02:19N 46°31' E 030°47'0 0.0
2014-Oct-11 01:25N 46°31' E 030°47'0 0.0
2014-Oct-11 00:31N 46°31' E 030°47'0 0.0
2014-Oct-10 23:13N 46°31' E 030°47'45 1.4
2014-Oct-09 14:12N 46°35' E 031°51'5 6.9
2014-Oct-09 13:33N 46°33' E 031°58'149 4.5
2014-Oct-08 04:31N 47°44' E 035°10'6 6.5
2014-Oct-08 03:33N 47°50' E 035°06'2 2.1
2014-Oct-08 02:33N 47°52' E 035°05'1 0.7
2014-Oct-08 01:28N 47°52' E 035°06'0 0.0
2014-Oct-08 00:28N 47°52' E 035°06'0 0.0
2014-Oct-07 23:22N 47°52' E 035°06'0 0.0
2014-Oct-07 22:22N 47°52' E 035°06'0 0.0
2014-Oct-07 21:28N 47°52' E 035°06'0 0.0
2014-Oct-07 20:28N 47°52' E 035°06'0 0.0
2014-Oct-07 18:22N 47°52' E 035°06'1 0.7
2014-Oct-07 17:33N 47°53' E 035°06'  
Track history (hours):
 
Tides and Currents Weather Stations Pressure Air Temp Water Temp Dewpoint Dewpoint Depression Visibility Wind Speed Wind Dir Waves Ship Positions

Slavutich-16

Last reported at 2014-Oct-15 15:17 UTC. Time now 2014-Oct-25 07:48 UTC.
Position N 44°36' E 035°08'.
Warning: this ship's position is 9 days out of date.

Length 108 m; draft 2.6 m.

Type: Cargo ship. MMSI: 272046000.

Date/timePositionNaut miles runAvg speedWind from/ knotsBaromVisibWave heightAir tempDewpointWater temp
2014-Oct-15 15:17N 44°36' E 035°08'6 6.8
2014-Oct-15 14:28N 44°34' E 035°01'6 6.6
2014-Oct-15 13:33N 44°32' E 034°53'7 6.6
2014-Oct-15 12:33N 44°30' E 034°44'7 6.8
2014-Oct-15 11:33N 44°28' E 034°35'7 7.1
2014-Oct-15 10:33N 44°25' E 034°26'7 6.9
2014-Oct-15 09:33N 44°23' E 034°17'8 7.3
2014-Oct-15 08:31N 44°21' E 034°07'57 5.7
2014-Oct-14 22:29N 44°44' E 032°54'9 6.8
2014-Oct-14 21:08N 44°51' E 032°45'11 7.1
2014-Oct-14 19:32N 44°59' E 032°34'7 7.5
2014-Oct-14 18:33N 45°05' E 032°27'8 7.3
2014-Oct-14 17:27N 45°11' E 032°19'7 7.4
2014-Oct-14 16:33N 45°16' E 032°13'6 5.7
2014-Oct-14 15:34N 45°20' E 032°18'6 5.7
2014-Oct-14 14:33N 45°26' E 032°17'7 7.4
2014-Oct-14 13:33N 45°32' E 032°10'7 7.3
2014-Oct-14 12:33N 45°38' E 032°04'11 7.3
2014-Oct-14 11:04N 45°47' E 031°55'6 7.3
2014-Oct-14 10:16N 45°52' E 031°51'5 7.3
2014-Oct-14 09:33N 45°56' E 031°47'7 7.3
2014-Oct-14 08:33N 46°02' E 031°41'15 7.3
2014-Oct-14 06:33N 46°14' E 031°29'8 7.5
2014-Oct-14 05:30N 46°22' E 031°29'7 7.4
2014-Oct-14 04:32N 46°29' E 031°29'6 5.6
2014-Oct-14 03:30N 46°35' E 031°31'8 7.4
2014-Oct-14 02:23N 46°36' E 031°43'7 7.6
2014-Oct-14 01:28N 46°37' E 031°52'6 6.9
2014-Oct-14 00:33N 46°43' E 031°56'6 6.3
2014-Oct-13 23:33N 46°49' E 031°54'7 7.0
2014-Oct-13 22:32N 46°55' E 032°01'2 2.1
2014-Oct-13 21:31N 46°57' E 031°60'0 0.0
2014-Oct-13 20:31N 46°57' E 031°60'0 0.0
2014-Oct-13 19:31N 46°57' E 031°60'0 0.0
2014-Oct-13 18:31N 46°57' E 031°60'0 0.0
2014-Oct-13 17:31N 46°57' E 031°60'0 0.0
2014-Oct-13 16:31N 46°57' E 031°60'0 0.0
2014-Oct-13 15:31N 46°57' E 031°60'1 0.4
2014-Oct-13 13:28N 46°57' E 032°01'0 0.0
2014-Oct-13 12:22N 46°57' E 032°01'0 0.0
2014-Oct-13 11:31N 46°57' E 032°01'0 0.0
2014-Oct-13 10:31N 46°57' E 032°01'0 0.0
2014-Oct-13 09:31N 46°57' E 032°01'0 0.0
2014-Oct-13 08:31N 46°57' E 032°01'0 0.0
2014-Oct-13 07:31N 46°57' E 032°01'0 0.0
2014-Oct-13 06:28N 46°57' E 032°01'0 0.0
2014-Oct-13 05:31N 46°57' E 032°01'0 0.0
2014-Oct-13 04:31N 46°57' E 032°01'0 0.0
2014-Oct-13 03:31N 46°57' E 032°01'0 0.0
2014-Oct-13 02:31N 46°57' E 032°01'0 0.0
2014-Oct-13 01:31N 46°57' E 032°01'0 0.0
2014-Oct-13 00:31N 46°57' E 032°01'0 0.0
2014-Oct-12 23:31N 46°57' E 032°01'0 0.0
2014-Oct-12 22:31N 46°57' E 032°01'0 0.3
2014-Oct-12 21:33N 46°56' E 032°01'1 0.6
2014-Oct-12 20:31N 46°57' E 031°60'0 0.0
2014-Oct-12 19:31N 46°57' E 031°60'0 0.0
2014-Oct-12 18:31N 46°57' E 031°60'0 0.0
2014-Oct-12 17:31N 46°57' E 031°60'0 0.0
2014-Oct-12 16:31N 46°57' E 031°60'0 0.0
2014-Oct-12 15:31N 46°57' E 031°60'0 0.1
2014-Oct-12 14:31N 46°56' E 031°60'0 0.0
2014-Oct-12 13:31N 46°56' E 031°60'0 0.1
2014-Oct-12 12:31N 46°56' E 031°60'0 0.1
2014-Oct-12 11:31N 46°56' E 031°60'0 0.0
2014-Oct-12 10:31N 46°57' E 031°60'0 0.0
2014-Oct-12 09:31N 46°56' E 031°60'0 0.0
2014-Oct-12 08:31N 46°56' E 031°60'0 0.0
2014-Oct-12 07:31N 46°57' E 031°60'4 3.9
2014-Oct-12 06:33N 46°53' E 031°59'7 6.7
2014-Oct-12 05:33N 46°48' E 031°53'1 1.2
2014-Oct-12 04:31N 46°46' E 031°53'0 0.0
2014-Oct-12 03:31N 46°46' E 031°53'0 0.0
2014-Oct-12 02:31N 46°46' E 031°53'0 0.0
2014-Oct-12 01:31N 46°46' E 031°53'0 0.0
2014-Oct-12 00:28N 46°46' E 031°53'0 0.0
2014-Oct-11 23:31N 46°46' E 031°53'0 0.0
2014-Oct-11 22:31N 46°46' E 031°53'0 0.0
2014-Oct-11 21:31N 46°46' E 031°53'0 0.0
2014-Oct-11 20:31N 46°46' E 031°53'0 0.0
2014-Oct-11 19:31N 46°46' E 031°53'0 0.0
2014-Oct-11 18:31N 46°46' E 031°53'0 0.0
2014-Oct-11 17:31N 46°46' E 031°53'0 0.0
2014-Oct-11 16:31N 46°46' E 031°53'0 0.0
2014-Oct-11 15:31N 46°46' E 031°53'0 0.0
2014-Oct-11 14:31N 46°46' E 031°53'5 5.3
2014-Oct-11 13:34N 46°42' E 031°56'8 6.7
2014-Oct-11 12:18N 46°36' E 031°47'38 6.6
2014-Oct-11 06:30N 46°31' E 030°52'4 3.7
2014-Oct-11 05:33N 46°31' E 030°47'0 0.0
2014-Oct-11 02:19N 46°31' E 030°47'0 0.0
2014-Oct-11 01:25N 46°31' E 030°47'0 0.0
2014-Oct-11 00:31N 46°31' E 030°47'0 0.0
2014-Oct-10 23:13N 46°31' E 030°47'45 1.4
2014-Oct-09 14:12N 46°35' E 031°51'5 6.9
2014-Oct-09 13:33N 46°33' E 031°58'149 4.5
2014-Oct-08 04:31N 47°44' E 035°10'6 6.5
2014-Oct-08 03:33N 47°50' E 035°06'2 2.1
2014-Oct-08 02:33N 47°52' E 035°05'1 0.7
2014-Oct-08 01:28N 47°52' E 035°06'0 0.0
2014-Oct-08 00:28N 47°52' E 035°06'0 0.0
2014-Oct-07 23:22N 47°52' E 035°06'0 0.0
2014-Oct-07 22:22N 47°52' E 035°06'0 0.0
2014-Oct-07 21:28N 47°52' E 035°06'0 0.0
2014-Oct-07 20:28N 47°52' E 035°06'0 0.0
2014-Oct-07 18:22N 47°52' E 035°06'1 0.7
2014-Oct-07 17:33N 47°53' E 035°06'  

Dump ship's entire track history